sensor_id;sensor_type;location;lat;lon;timestamp;P1;durP1;ratioP1;P2;durP2;ratioP2
12900;SDS011;6518;50.930;5.344;2023-09-12T00:01:10;10.90;;;8.77;;
12900;SDS011;6518;50.930;5.344;2023-09-12T00:03:37;13.98;;;8.90;;
12900;SDS011;6518;50.930;5.344;2023-09-12T00:06:04;11.18;;;9.18;;
12900;SDS011;6518;50.930;5.344;2023-09-12T00:08:31;12.55;;;9.90;;
12900;SDS011;6518;50.930;5.344;2023-09-12T00:11:01;11.48;;;9.00;;
12900;SDS011;6518;50.930;5.344;2023-09-12T00:13:31;15.55;;;9.60;;
12900;SDS011;6518;50.930;5.344;2023-09-12T00:15:59;13.23;;;9.73;;
12900;SDS011;6518;50.930;5.344;2023-09-12T00:18:27;12.10;;;9.27;;
12900;SDS011;6518;50.930;5.344;2023-09-12T00:20:54;10.90;;;9.40;;
12900;SDS011;6518;50.930;5.344;2023-09-12T00:23:22;10.23;;;9.18;;
12900;SDS011;6518;50.930;5.344;2023-09-12T00:25:50;11.23;;;9.73;;
12900;SDS011;6518;50.930;5.344;2023-09-12T00:28:19;12.85;;;9.68;;
12900;SDS011;6518;50.930;5.344;2023-09-12T00:30:47;11.50;;;9.23;;
12900;SDS011;6518;50.930;5.344;2023-09-12T00:33:14;13.18;;;10.32;;
12900;SDS011;6518;50.930;5.344;2023-09-12T00:35:42;13.35;;;10.40;;
12900;SDS011;6518;50.930;5.344;2023-09-12T00:38:10;11.20;;;10.10;;
12900;SDS011;6518;50.930;5.344;2023-09-12T00:40:38;12.68;;;10.00;;
12900;SDS011;6518;50.930;5.344;2023-09-12T00:43:05;11.32;;;9.88;;
12900;SDS011;6518;50.930;5.344;2023-09-12T00:45:33;11.57;;;10.15;;
12900;SDS011;6518;50.930;5.344;2023-09-12T00:48:00;12.93;;;9.65;;
12900;SDS011;6518;50.930;5.344;2023-09-12T00:50:29;12.00;;;10.23;;
12900;SDS011;6518;50.930;5.344;2023-09-12T00:52:58;12.82;;;9.70;;
12900;SDS011;6518;50.930;5.344;2023-09-12T00:55:28;13.02;;;10.98;;
12900;SDS011;6518;50.930;5.344;2023-09-12T00:57:58;13.70;;;9.93;;
12900;SDS011;6518;50.930;5.344;2023-09-12T01:00:26;11.40;;;9.93;;
12900;SDS011;6518;50.930;5.344;2023-09-12T01:02:55;12.30;;;10.40;;
12900;SDS011;6518;50.930;5.344;2023-09-12T01:05:24;11.68;;;9.70;;
12900;SDS011;6518;50.930;5.344;2023-09-12T01:07:52;12.23;;;9.70;;
12900;SDS011;6518;50.930;5.344;2023-09-12T01:10:20;11.50;;;9.40;;
12900;SDS011;6518;50.930;5.344;2023-09-12T01:12:47;11.23;;;9.40;;
12900;SDS011;6518;50.930;5.344;2023-09-12T01:15:14;12.45;;;8.98;;
12900;SDS011;6518;50.930;5.344;2023-09-12T01:17:43;10.43;;;9.30;;
12900;SDS011;6518;50.930;5.344;2023-09-12T01:20:14;12.23;;;9.90;;
12900;SDS011;6518;50.930;5.344;2023-09-12T01:25:45;15.43;;;10.75;;
12900;SDS011;6518;50.930;5.344;2023-09-12T01:28:31;10.55;;;9.43;;
12900;SDS011;6518;50.930;5.344;2023-09-12T01:31:01;12.15;;;10.45;;
12900;SDS011;6518;50.930;5.344;2023-09-12T01:33:29;11.73;;;10.52;;
12900;SDS011;6518;50.930;5.344;2023-09-12T01:35:56;12.32;;;10.60;;
12900;SDS011;6518;50.930;5.344;2023-09-12T01:38:23;13.23;;;11.82;;
12900;SDS011;6518;50.930;5.344;2023-09-12T01:40:51;14.98;;;12.05;;
12900;SDS011;6518;50.930;5.344;2023-09-12T01:43:19;15.75;;;11.65;;
12900;SDS011;6518;50.930;5.344;2023-09-12T01:45:52;15.70;;;11.77;;
12900;SDS011;6518;50.930;5.344;2023-09-12T01:48:23;15.52;;;12.15;;
12900;SDS011;6518;50.930;5.344;2023-09-12T01:50:54;15.18;;;11.27;;
12900;SDS011;6518;50.930;5.344;2023-09-12T01:53:21;16.20;;;11.77;;
12900;SDS011;6518;50.930;5.344;2023-09-12T01:55:48;14.73;;;11.60;;
12900;SDS011;6518;50.930;5.344;2023-09-12T01:58:16;15.60;;;12.52;;
12900;SDS011;6518;50.930;5.344;2023-09-12T02:00:44;18.50;;;12.50;;
12900;SDS011;6518;50.930;5.344;2023-09-12T02:03:12;17.70;;;12.63;;
12900;SDS011;6518;50.930;5.344;2023-09-12T02:05:40;14.98;;;12.60;;
12900;SDS011;6518;50.930;5.344;2023-09-12T02:08:07;13.63;;;12.18;;
12900;SDS011;6518;50.930;5.344;2023-09-12T02:10:34;14.00;;;12.25;;
12900;SDS011;6518;50.930;5.344;2023-09-12T02:13:02;15.35;;;13.30;;
12900;SDS011;6518;50.930;5.344;2023-09-12T02:15:29;15.68;;;12.55;;
12900;SDS011;6518;50.930;5.344;2023-09-12T02:17:56;15.55;;;13.35;;
12900;SDS011;6518;50.930;5.344;2023-09-12T02:20:26;15.25;;;12.15;;
12900;SDS011;6518;50.930;5.344;2023-09-12T02:22:53;16.05;;;14.35;;
12900;SDS011;6518;50.930;5.344;2023-09-12T02:25:21;14.98;;;13.32;;
12900;SDS011;6518;50.930;5.344;2023-09-12T02:27:48;17.95;;;14.82;;
12900;SDS011;6518;50.930;5.344;2023-09-12T02:30:15;15.05;;;13.45;;
12900;SDS011;6518;50.930;5.344;2023-09-12T02:32:42;15.23;;;12.90;;
12900;SDS011;6518;50.930;5.344;2023-09-12T02:35:09;15.48;;;13.43;;
12900;SDS011;6518;50.930;5.344;2023-09-12T02:37:37;15.68;;;13.55;;
12900;SDS011;6518;50.930;5.344;2023-09-12T02:40:04;14.27;;;12.80;;
12900;SDS011;6518;50.930;5.344;2023-09-12T02:42:33;19.23;;;14.38;;
12900;SDS011;6518;50.930;5.344;2023-09-12T02:45:00;15.90;;;14.05;;
12900;SDS011;6518;50.930;5.344;2023-09-12T02:47:27;16.30;;;13.95;;
12900;SDS011;6518;50.930;5.344;2023-09-12T02:49:54;20.48;;;14.88;;
12900;SDS011;6518;50.930;5.344;2023-09-12T02:52:21;16.35;;;13.65;;
12900;SDS011;6518;50.930;5.344;2023-09-12T02:54:52;16.48;;;13.77;;
12900;SDS011;6518;50.930;5.344;2023-09-12T02:57:20;19.90;;;13.75;;
12900;SDS011;6518;50.930;5.344;2023-09-12T02:59:47;16.02;;;13.07;;
12900;SDS011;6518;50.930;5.344;2023-09-12T03:02:14;15.07;;;12.98;;
12900;SDS011;6518;50.930;5.344;2023-09-12T03:04:41;17.35;;;13.27;;
12900;SDS011;6518;50.930;5.344;2023-09-12T03:07:08;14.10;;;12.70;;
12900;SDS011;6518;50.930;5.344;2023-09-12T03:09:36;16.10;;;14.30;;
12900;SDS011;6518;50.930;5.344;2023-09-12T03:12:05;18.90;;;14.82;;
12900;SDS011;6518;50.930;5.344;2023-09-12T03:14:33;17.80;;;15.48;;
12900;SDS011;6518;50.930;5.344;2023-09-12T03:17:00;17.73;;;15.02;;
12900;SDS011;6518;50.930;5.344;2023-09-12T03:19:29;20.60;;;14.63;;
12900;SDS011;6518;50.930;5.344;2023-09-12T03:21:57;17.83;;;14.45;;
12900;SDS011;6518;50.930;5.344;2023-09-12T03:24:24;17.58;;;14.35;;
12900;SDS011;6518;50.930;5.344;2023-09-12T03:26:55;18.90;;;14.85;;
12900;SDS011;6518;50.930;5.344;2023-09-12T03:29:23;18.80;;;13.95;;
12900;SDS011;6518;50.930;5.344;2023-09-12T03:31:50;15.75;;;13.63;;
12900;SDS011;6518;50.930;5.344;2023-09-12T03:34:18;19.00;;;13.90;;
12900;SDS011;6518;50.930;5.344;2023-09-12T03:36:45;15.82;;;13.57;;
12900;SDS011;6518;50.930;5.344;2023-09-12T03:39:12;18.33;;;14.68;;
12900;SDS011;6518;50.930;5.344;2023-09-12T03:41:39;17.80;;;14.48;;
12900;SDS011;6518;50.930;5.344;2023-09-12T03:44:07;15.50;;;13.85;;
12900;SDS011;6518;50.930;5.344;2023-09-12T03:46:36;19.42;;;13.80;;
12900;SDS011;6518;50.930;5.344;2023-09-12T03:49:03;16.95;;;14.13;;
12900;SDS011;6518;50.930;5.344;2023-09-12T03:51:30;17.58;;;14.50;;
12900;SDS011;6518;50.930;5.344;2023-09-12T03:53:58;19.60;;;14.90;;
12900;SDS011;6518;50.930;5.344;2023-09-12T03:56:25;20.52;;;14.93;;
12900;SDS011;6518;50.930;5.344;2023-09-12T03:58:52;19.73;;;15.63;;
12900;SDS011;6518;50.930;5.344;2023-09-12T04:01:23;22.33;;;16.40;;
12900;SDS011;6518;50.930;5.344;2023-09-12T04:03:52;22.42;;;14.88;;
12900;SDS011;6518;50.930;5.344;2023-09-12T04:06:19;19.10;;;15.15;;
12900;SDS011;6518;50.930;5.344;2023-09-12T04:08:46;18.42;;;15.27;;
12900;SDS011;6518;50.930;5.344;2023-09-12T04:11:14;21.15;;;15.77;;
12900;SDS011;6518;50.930;5.344;2023-09-12T04:13:41;19.90;;;15.45;;
12900;SDS011;6518;50.930;5.344;2023-09-12T04:16:09;19.00;;;15.00;;
12900;SDS011;6518;50.930;5.344;2023-09-12T04:18:35;21.55;;;15.85;;
12900;SDS011;6518;50.930;5.344;2023-09-12T04:21:04;19.42;;;15.50;;
12900;SDS011;6518;50.930;5.344;2023-09-12T04:23:31;18.05;;;14.90;;
12900;SDS011;6518;50.930;5.344;2023-09-12T04:25:58;20.27;;;15.73;;
12900;SDS011;6518;50.930;5.344;2023-09-12T04:28:28;21.05;;;15.93;;
12900;SDS011;6518;50.930;5.344;2023-09-12T04:31:00;22.27;;;16.52;;
12900;SDS011;6518;50.930;5.344;2023-09-12T04:33:28;23.20;;;16.98;;
12900;SDS011;6518;50.930;5.344;2023-09-12T04:35:57;23.63;;;17.77;;
12900;SDS011;6518;50.930;5.344;2023-09-12T04:38:25;22.30;;;18.50;;
12900;SDS011;6518;50.930;5.344;2023-09-12T04:40:53;21.80;;;17.70;;
12900;SDS011;6518;50.930;5.344;2023-09-12T04:43:20;25.73;;;18.75;;
12900;SDS011;6518;50.930;5.344;2023-09-12T04:45:48;21.65;;;17.58;;
12900;SDS011;6518;50.930;5.344;2023-09-12T04:48:15;23.40;;;18.65;;
12900;SDS011;6518;50.930;5.344;2023-09-12T04:50:43;23.38;;;18.73;;
12900;SDS011;6518;50.930;5.344;2023-09-12T04:53:10;23.23;;;18.58;;
12900;SDS011;6518;50.930;5.344;2023-09-12T04:55:41;22.02;;;18.63;;
12900;SDS011;6518;50.930;5.344;2023-09-12T04:58:08;27.83;;;18.92;;
12900;SDS011;6518;50.930;5.344;2023-09-12T05:00:35;23.95;;;18.10;;
12900;SDS011;6518;50.930;5.344;2023-09-12T05:03:06;24.20;;;17.30;;
12900;SDS011;6518;50.930;5.344;2023-09-12T05:05:34;22.20;;;17.30;;
12900;SDS011;6518;50.930;5.344;2023-09-12T05:08:02;21.00;;;16.15;;
12900;SDS011;6518;50.930;5.344;2023-09-12T05:10:29;19.70;;;15.88;;
12900;SDS011;6518;50.930;5.344;2023-09-12T05:12:59;18.65;;;16.65;;
12900;SDS011;6518;50.930;5.344;2023-09-12T05:15:26;19.67;;;16.17;;
12900;SDS011;6518;50.930;5.344;2023-09-12T05:17:53;22.75;;;17.02;;
12900;SDS011;6518;50.930;5.344;2023-09-12T05:20:21;19.80;;;16.30;;
12900;SDS011;6518;50.930;5.344;2023-09-12T05:22:48;20.98;;;17.23;;
12900;SDS011;6518;50.930;5.344;2023-09-12T05:25:15;21.17;;;17.13;;
12900;SDS011;6518;50.930;5.344;2023-09-12T05:27:42;19.52;;;16.33;;
12900;SDS011;6518;50.930;5.344;2023-09-12T05:30:11;20.45;;;15.57;;
12900;SDS011;6518;50.930;5.344;2023-09-12T05:32:38;16.63;;;14.48;;
12900;SDS011;6518;50.930;5.344;2023-09-12T05:35:07;19.10;;;14.23;;
12900;SDS011;6518;50.930;5.344;2023-09-12T05:37:34;19.02;;;15.32;;
12900;SDS011;6518;50.930;5.344;2023-09-12T05:40:01;19.25;;;14.65;;
12900;SDS011;6518;50.930;5.344;2023-09-12T05:42:28;19.88;;;14.50;;
12900;SDS011;6518;50.930;5.344;2023-09-12T05:44:55;17.42;;;13.68;;
12900;SDS011;6518;50.930;5.344;2023-09-12T05:47:23;16.98;;;14.65;;
12900;SDS011;6518;50.930;5.344;2023-09-12T05:49:50;18.45;;;14.55;;
12900;SDS011;6518;50.930;5.344;2023-09-12T05:52:17;18.48;;;14.27;;
12900;SDS011;6518;50.930;5.344;2023-09-12T05:54:44;18.85;;;15.55;;
12900;SDS011;6518;50.930;5.344;2023-09-12T05:57:11;18.50;;;15.02;;
12900;SDS011;6518;50.930;5.344;2023-09-12T05:59:38;19.85;;;15.60;;
12900;SDS011;6518;50.930;5.344;2023-09-12T06:02:05;19.38;;;14.63;;
12900;SDS011;6518;50.930;5.344;2023-09-12T06:04:36;20.08;;;15.65;;
12900;SDS011;6518;50.930;5.344;2023-09-12T06:07:03;17.90;;;15.40;;
12900;SDS011;6518;50.930;5.344;2023-09-12T06:09:30;18.33;;;15.45;;
12900;SDS011;6518;50.930;5.344;2023-09-12T06:11:57;22.23;;;15.20;;
12900;SDS011;6518;50.930;5.344;2023-09-12T06:14:24;21.83;;;14.93;;
12900;SDS011;6518;50.930;5.344;2023-09-12T06:16:50;21.55;;;14.00;;
12900;SDS011;6518;50.930;5.344;2023-09-12T06:19:18;16.50;;;14.52;;
12900;SDS011;6518;50.930;5.344;2023-09-12T06:21:47;19.30;;;14.75;;
12900;SDS011;6518;50.930;5.344;2023-09-12T06:24:14;19.45;;;15.55;;
12900;SDS011;6518;50.930;5.344;2023-09-12T06:26:42;17.90;;;15.52;;
12900;SDS011;6518;50.930;5.344;2023-09-12T06:29:09;19.98;;;15.45;;
12900;SDS011;6518;50.930;5.344;2023-09-12T06:31:36;20.63;;;15.77;;
12900;SDS011;6518;50.930;5.344;2023-09-12T06:34:03;22.20;;;16.70;;
12900;SDS011;6518;50.930;5.344;2023-09-12T06:36:30;26.75;;;17.38;;
12900;SDS011;6518;50.930;5.344;2023-09-12T06:38:58;26.13;;;17.27;;
12900;SDS011;6518;50.930;5.344;2023-09-12T06:41:26;22.77;;;16.67;;
12900;SDS011;6518;50.930;5.344;2023-09-12T06:43:53;26.70;;;17.58;;
12900;SDS011;6518;50.930;5.344;2023-09-12T06:46:22;22.85;;;17.67;;
12900;SDS011;6518;50.930;5.344;2023-09-12T06:48:49;27.10;;;18.77;;
12900;SDS011;6518;50.930;5.344;2023-09-12T06:51:16;19.40;;;17.30;;
12900;SDS011;6518;50.930;5.344;2023-09-12T06:53:43;22.95;;;18.02;;
12900;SDS011;6518;50.930;5.344;2023-09-12T06:56:11;23.42;;;18.25;;
12900;SDS011;6518;50.930;5.344;2023-09-12T06:58:38;22.60;;;17.73;;
12900;SDS011;6518;50.930;5.344;2023-09-12T07:01:05;25.60;;;18.90;;
12900;SDS011;6518;50.930;5.344;2023-09-12T07:03:34;26.00;;;19.45;;
12900;SDS011;6518;50.930;5.344;2023-09-12T07:06:01;23.20;;;19.70;;
12900;SDS011;6518;50.930;5.344;2023-09-12T07:08:30;24.58;;;19.90;;
12900;SDS011;6518;50.930;5.344;2023-09-12T07:10:58;24.02;;;18.20;;
12900;SDS011;6518;50.930;5.344;2023-09-12T07:13:31;22.05;;;18.30;;
12900;SDS011;6518;50.930;5.344;2023-09-12T07:15:59;21.38;;;17.00;;
12900;SDS011;6518;50.930;5.344;2023-09-12T07:18:28;20.08;;;16.63;;
12900;SDS011;6518;50.930;5.344;2023-09-12T07:20:58;22.30;;;17.70;;
12900;SDS011;6518;50.930;5.344;2023-09-12T07:23:26;20.85;;;16.65;;
12900;SDS011;6518;50.930;5.344;2023-09-12T07:25:53;18.40;;;15.65;;
12900;SDS011;6518;50.930;5.344;2023-09-12T07:28:22;19.25;;;16.58;;
12900;SDS011;6518;50.930;5.344;2023-09-12T07:30:50;20.10;;;17.42;;
12900;SDS011;6518;50.930;5.344;2023-09-12T07:33:17;20.45;;;17.20;;
12900;SDS011;6518;50.930;5.344;2023-09-12T07:35:45;20.40;;;15.68;;
12900;SDS011;6518;50.930;5.344;2023-09-12T07:38:12;20.52;;;16.65;;
12900;SDS011;6518;50.930;5.344;2023-09-12T07:40:40;22.52;;;15.65;;
12900;SDS011;6518;50.930;5.344;2023-09-12T07:43:07;20.27;;;15.60;;
12900;SDS011;6518;50.930;5.344;2023-09-12T07:45:34;21.25;;;16.88;;
12900;SDS011;6518;50.930;5.344;2023-09-12T07:48:05;25.98;;;17.27;;
12900;SDS011;6518;50.930;5.344;2023-09-12T07:50:33;22.73;;;16.70;;
12900;SDS011;6518;50.930;5.344;2023-09-12T07:53:00;21.60;;;17.83;;
12900;SDS011;6518;50.930;5.344;2023-09-12T07:55:27;22.52;;;18.20;;
12900;SDS011;6518;50.930;5.344;2023-09-12T07:57:56;23.63;;;18.58;;
12900;SDS011;6518;50.930;5.344;2023-09-12T08:00:23;21.42;;;17.17;;
12900;SDS011;6518;50.930;5.344;2023-09-12T08:02:50;24.80;;;18.40;;
12900;SDS011;6518;50.930;5.344;2023-09-12T08:05:18;21.80;;;17.85;;
12900;SDS011;6518;50.930;5.344;2023-09-12T08:07:45;28.70;;;18.15;;
12900;SDS011;6518;50.930;5.344;2023-09-12T08:10:12;20.58;;;17.42;;
12900;SDS011;6518;50.930;5.344;2023-09-12T08:12:39;21.02;;;17.23;;
12900;SDS011;6518;50.930;5.344;2023-09-12T08:15:07;19.80;;;16.92;;
12900;SDS011;6518;50.930;5.344;2023-09-12T08:17:34;22.73;;;16.15;;
12900;SDS011;6518;50.930;5.344;2023-09-12T08:20:01;22.63;;;18.17;;
12900;SDS011;6518;50.930;5.344;2023-09-12T08:22:30;22.45;;;17.90;;
12900;SDS011;6518;50.930;5.344;2023-09-12T08:24:58;21.73;;;17.05;;
12900;SDS011;6518;50.930;5.344;2023-09-12T08:27:25;21.52;;;17.40;;
12900;SDS011;6518;50.930;5.344;2023-09-12T08:29:52;20.30;;;16.10;;
12900;SDS011;6518;50.930;5.344;2023-09-12T08:32:19;17.38;;;15.32;;
12900;SDS011;6518;50.930;5.344;2023-09-12T08:34:46;15.93;;;13.63;;
12900;SDS011;6518;50.930;5.344;2023-09-12T08:37:13;16.40;;;12.70;;
12900;SDS011;6518;50.930;5.344;2023-09-12T08:39:42;16.58;;;11.57;;
12900;SDS011;6518;50.930;5.344;2023-09-12T08:42:11;16.33;;;12.55;;
12900;SDS011;6518;50.930;5.344;2023-09-12T08:44:39;24.52;;;14.75;;
12900;SDS011;6518;50.930;5.344;2023-09-12T08:47:07;19.75;;;13.73;;
12900;SDS011;6518;50.930;5.344;2023-09-12T08:49:35;16.77;;;13.23;;
12900;SDS011;6518;50.930;5.344;2023-09-12T08:52:03;15.52;;;13.50;;
12900;SDS011;6518;50.930;5.344;2023-09-12T08:54:31;18.15;;;13.23;;
12900;SDS011;6518;50.930;5.344;2023-09-12T08:56:59;15.93;;;13.95;;
12900;SDS011;6518;50.930;5.344;2023-09-12T08:59:28;19.58;;;13.63;;
12900;SDS011;6518;50.930;5.344;2023-09-12T09:01:57;21.45;;;13.65;;
12900;SDS011;6518;50.930;5.344;2023-09-12T09:04:26;17.63;;;13.60;;
12900;SDS011;6518;50.930;5.344;2023-09-12T09:06:56;15.07;;;12.52;;
12900;SDS011;6518;50.930;5.344;2023-09-12T09:09:24;12.77;;;9.35;;
12900;SDS011;6518;50.930;5.344;2023-09-12T09:11:53;10.93;;;8.40;;
12900;SDS011;6518;50.930;5.344;2023-09-12T09:14:21;11.77;;;9.80;;
12900;SDS011;6518;50.930;5.344;2023-09-12T09:16:48;16.58;;;12.85;;
12900;SDS011;6518;50.930;5.344;2023-09-12T09:19:16;18.55;;;14.57;;
12900;SDS011;6518;50.930;5.344;2023-09-12T09:21:45;16.77;;;12.02;;
12900;SDS011;6518;50.930;5.344;2023-09-12T09:24:12;16.08;;;12.77;;
12900;SDS011;6518;50.930;5.344;2023-09-12T09:26:42;16.45;;;13.23;;
12900;SDS011;6518;50.930;5.344;2023-09-12T09:29:12;19.50;;;12.27;;
12900;SDS011;6518;50.930;5.344;2023-09-12T09:31:43;16.60;;;11.43;;
12900;SDS011;6518;50.930;5.344;2023-09-12T09:34:11;14.13;;;9.93;;
12900;SDS011;6518;50.930;5.344;2023-09-12T09:36:42;15.07;;;10.63;;
12900;SDS011;6518;50.930;5.344;2023-09-12T09:39:10;15.68;;;12.45;;
12900;SDS011;6518;50.930;5.344;2023-09-12T09:41:38;15.23;;;11.13;;
12900;SDS011;6518;50.930;5.344;2023-09-12T09:44:07;15.52;;;11.45;;
12900;SDS011;6518;50.930;5.344;2023-09-12T09:46:34;15.80;;;9.88;;
12900;SDS011;6518;50.930;5.344;2023-09-12T09:49:04;12.05;;;9.32;;
12900;SDS011;6518;50.930;5.344;2023-09-12T09:51:32;10.90;;;9.32;;
12900;SDS011;6518;50.930;5.344;2023-09-12T09:54:07;17.42;;;8.32;;
12900;SDS011;6518;50.930;5.344;2023-09-12T09:56:34;10.40;;;8.00;;
12900;SDS011;6518;50.930;5.344;2023-09-12T09:59:13;13.57;;;8.50;;
12900;SDS011;6518;50.930;5.344;2023-09-12T10:01:41;14.00;;;9.95;;
12900;SDS011;6518;50.930;5.344;2023-09-12T10:04:11;13.65;;;9.90;;
12900;SDS011;6518;50.930;5.344;2023-09-12T10:06:38;13.63;;;9.70;;
12900;SDS011;6518;50.930;5.344;2023-09-12T10:09:09;12.13;;;8.55;;
12900;SDS011;6518;50.930;5.344;2023-09-12T10:11:37;13.73;;;8.85;;
12900;SDS011;6518;50.930;5.344;2023-09-12T10:14:05;10.20;;;8.82;;
12900;SDS011;6518;50.930;5.344;2023-09-12T10:16:33;9.25;;;7.65;;
12900;SDS011;6518;50.930;5.344;2023-09-12T10:19:04;13.90;;;9.25;;
12900;SDS011;6518;50.930;5.344;2023-09-12T10:21:40;11.68;;;8.27;;
12900;SDS011;6518;50.930;5.344;2023-09-12T10:24:12;10.18;;;8.27;;
12900;SDS011;6518;50.930;5.344;2023-09-12T10:26:41;10.00;;;7.70;;
12900;SDS011;6518;50.930;5.344;2023-09-12T10:29:10;12.88;;;7.95;;
12900;SDS011;6518;50.930;5.344;2023-09-12T10:31:39;11.23;;;7.80;;
12900;SDS011;6518;50.930;5.344;2023-09-12T10:34:06;11.35;;;7.82;;
12900;SDS011;6518;50.930;5.344;2023-09-12T10:36:35;10.95;;;8.52;;
12900;SDS011;6518;50.930;5.344;2023-09-12T10:39:06;10.10;;;7.63;;
12900;SDS011;6518;50.930;5.344;2023-09-12T10:41:35;10.68;;;8.55;;
12900;SDS011;6518;50.930;5.344;2023-09-12T10:44:05;11.25;;;7.70;;
12900;SDS011;6518;50.930;5.344;2023-09-12T10:46:36;13.85;;;8.48;;
12900;SDS011;6518;50.930;5.344;2023-09-12T10:49:06;12.23;;;8.80;;
12900;SDS011;6518;50.930;5.344;2023-09-12T10:51:34;9.27;;;8.10;;
12900;SDS011;6518;50.930;5.344;2023-09-12T10:54:06;9.48;;;6.72;;
12900;SDS011;6518;50.930;5.344;2023-09-12T10:56:34;7.38;;;5.68;;
12900;SDS011;6518;50.930;5.344;2023-09-12T10:59:10;9.98;;;6.68;;
12900;SDS011;6518;50.930;5.344;2023-09-12T11:01:39;9.20;;;7.30;;
12900;SDS011;6518;50.930;5.344;2023-09-12T11:10:17;12.07;;;6.82;;
12900;SDS011;6518;50.930;5.344;2023-09-12T11:12:46;10.00;;;6.63;;
12900;SDS011;6518;50.930;5.344;2023-09-12T11:15:14;7.82;;;6.25;;
12900;SDS011;6518;50.930;5.344;2023-09-12T11:17:42;9.50;;;6.80;;
12900;SDS011;6518;50.930;5.344;2023-09-12T11:20:10;8.38;;;6.32;;
12900;SDS011;6518;50.930;5.344;2023-09-12T11:22:38;9.02;;;6.53;;
12900;SDS011;6518;50.930;5.344;2023-09-12T11:25:15;8.05;;;5.93;;
12900;SDS011;6518;50.930;5.344;2023-09-12T11:27:45;7.00;;;5.93;;
12900;SDS011;6518;50.930;5.344;2023-09-12T11:30:27;8.80;;;5.65;;
12900;SDS011;6518;50.930;5.344;2023-09-12T11:32:56;7.40;;;6.07;;
12900;SDS011;6518;50.930;5.344;2023-09-12T11:35:24;9.05;;;6.90;;
12900;SDS011;6518;50.930;5.344;2023-09-12T11:37:53;7.82;;;6.70;;
12900;SDS011;6518;50.930;5.344;2023-09-12T11:40:24;12.20;;;7.13;;
12900;SDS011;6518;50.930;5.344;2023-09-12T11:43:07;9.20;;;7.10;;
12900;SDS011;6518;50.930;5.344;2023-09-12T11:45:44;24.33;;;8.13;;
12900;SDS011;6518;50.930;5.344;2023-09-12T11:48:13;64.57;;;15.02;;
12900;SDS011;6518;50.930;5.344;2023-09-12T11:50:39;82.70;;;17.80;;
12900;SDS011;6518;50.930;5.344;2023-09-12T11:53:09;58.83;;;14.15;;
12900;SDS011;6518;50.930;5.344;2023-09-12T11:55:41;89.47;;;19.85;;
12900;SDS011;6518;50.930;5.344;2023-09-12T11:58:09;41.90;;;11.88;;
12900;SDS011;6518;50.930;5.344;2023-09-12T12:00:37;20.70;;;8.10;;
12900;SDS011;6518;50.930;5.344;2023-09-12T12:03:08;40.08;;;11.70;;
12900;SDS011;6518;50.930;5.344;2023-09-12T12:05:36;15.90;;;7.22;;
12900;SDS011;6518;50.930;5.344;2023-09-12T12:08:03;13.43;;;7.25;;
12900;SDS011;6518;50.930;5.344;2023-09-12T12:10:30;15.13;;;7.20;;
12900;SDS011;6518;50.930;5.344;2023-09-12T12:12:59;9.82;;;6.28;;
12900;SDS011;6518;50.930;5.344;2023-09-12T12:15:27;6.70;;;6.10;;
12900;SDS011;6518;50.930;5.344;2023-09-12T12:17:54;6.97;;;5.90;;
12900;SDS011;6518;50.930;5.344;2023-09-12T12:20:21;8.40;;;6.13;;
12900;SDS011;6518;50.930;5.344;2023-09-12T12:22:49;8.65;;;5.57;;
12900;SDS011;6518;50.930;5.344;2023-09-12T12:25:17;6.72;;;5.47;;
12900;SDS011;6518;50.930;5.344;2023-09-12T12:27:44;7.45;;;5.30;;
12900;SDS011;6518;50.930;5.344;2023-09-12T12:30:12;8.60;;;5.38;;
12900;SDS011;6518;50.930;5.344;2023-09-12T12:32:40;8.45;;;5.50;;
12900;SDS011;6518;50.930;5.344;2023-09-12T12:35:08;8.52;;;5.88;;
12900;SDS011;6518;50.930;5.344;2023-09-12T12:37:35;6.93;;;5.53;;
12900;SDS011;6518;50.930;5.344;2023-09-12T12:40:03;6.10;;;5.50;;
12900;SDS011;6518;50.930;5.344;2023-09-12T12:42:34;8.23;;;5.63;;
12900;SDS011;6518;50.930;5.344;2023-09-12T12:45:11;7.38;;;5.00;;
12900;SDS011;6518;50.930;5.344;2023-09-12T12:47:39;5.90;;;5.20;;
12900;SDS011;6518;50.930;5.344;2023-09-12T12:50:07;7.35;;;5.78;;
12900;SDS011;6518;50.930;5.344;2023-09-12T12:52:36;9.48;;;5.28;;
12900;SDS011;6518;50.930;5.344;2023-09-12T12:55:04;6.20;;;5.03;;
12900;SDS011;6518;50.930;5.344;2023-09-12T12:57:31;5.43;;;4.43;;
12900;SDS011;6518;50.930;5.344;2023-09-12T13:00:01;5.72;;;4.63;;
12900;SDS011;6518;50.930;5.344;2023-09-12T13:02:32;5.85;;;3.80;;
12900;SDS011;6518;50.930;5.344;2023-09-12T13:04:59;5.70;;;4.00;;
12900;SDS011;6518;50.930;5.344;2023-09-12T13:07:25;4.78;;;3.90;;
12900;SDS011;6518;50.930;5.344;2023-09-12T13:09:52;6.05;;;4.10;;
12900;SDS011;6518;50.930;5.344;2023-09-12T13:12:19;4.43;;;4.00;;
12900;SDS011;6518;50.930;5.344;2023-09-12T13:14:46;5.78;;;4.30;;
12900;SDS011;6518;50.930;5.344;2023-09-12T13:17:13;4.68;;;4.07;;
12900;SDS011;6518;50.930;5.344;2023-09-12T13:19:41;4.70;;;4.18;;
12900;SDS011;6518;50.930;5.344;2023-09-12T13:22:08;4.28;;;3.88;;
12900;SDS011;6518;50.930;5.344;2023-09-12T13:24:35;4.38;;;3.90;;
12900;SDS011;6518;50.930;5.344;2023-09-12T13:27:02;5.47;;;3.75;;
12900;SDS011;6518;50.930;5.344;2023-09-12T13:29:29;6.10;;;3.95;;
12900;SDS011;6518;50.930;5.344;2023-09-12T13:31:56;4.57;;;3.55;;
12900;SDS011;6518;50.930;5.344;2023-09-12T13:34:23;4.53;;;3.60;;
12900;SDS011;6518;50.930;5.344;2023-09-12T13:36:51;4.75;;;4.13;;
12900;SDS011;6518;50.930;5.344;2023-09-12T13:39:19;4.85;;;3.42;;
12900;SDS011;6518;50.930;5.344;2023-09-12T13:41:45;5.55;;;3.72;;
12900;SDS011;6518;50.930;5.344;2023-09-12T13:44:12;5.57;;;3.95;;
12900;SDS011;6518;50.930;5.344;2023-09-12T13:46:39;5.18;;;3.78;;
12900;SDS011;6518;50.930;5.344;2023-09-12T13:49:09;5.90;;;3.72;;
12900;SDS011;6518;50.930;5.344;2023-09-12T13:51:36;4.15;;;3.67;;
12900;SDS011;6518;50.930;5.344;2023-09-12T13:54:04;4.35;;;3.95;;
12900;SDS011;6518;50.930;5.344;2023-09-12T13:56:33;5.70;;;4.28;;
12900;SDS011;6518;50.930;5.344;2023-09-12T13:59:01;7.03;;;3.95;;
12900;SDS011;6518;50.930;5.344;2023-09-12T14:01:30;7.15;;;3.92;;
12900;SDS011;6518;50.930;5.344;2023-09-12T14:03:57;4.82;;;4.10;;
12900;SDS011;6518;50.930;5.344;2023-09-12T14:06:24;5.93;;;3.83;;
12900;SDS011;6518;50.930;5.344;2023-09-12T14:08:51;5.30;;;4.00;;
12900;SDS011;6518;50.930;5.344;2023-09-12T14:11:20;5.45;;;3.63;;
12900;SDS011;6518;50.930;5.344;2023-09-12T14:13:47;5.82;;;3.97;;
12900;SDS011;6518;50.930;5.344;2023-09-12T14:16:14;5.25;;;3.50;;
12900;SDS011;6518;50.930;5.344;2023-09-12T14:18:41;6.13;;;3.90;;
12900;SDS011;6518;50.930;5.344;2023-09-12T14:21:07;5.28;;;3.70;;
12900;SDS011;6518;50.930;5.344;2023-09-12T14:23:34;5.32;;;3.60;;
12900;SDS011;6518;50.930;5.344;2023-09-12T14:26:01;6.80;;;3.83;;
12900;SDS011;6518;50.930;5.344;2023-09-12T14:28:30;5.20;;;3.47;;
12900;SDS011;6518;50.930;5.344;2023-09-12T14:30:59;4.68;;;3.92;;
12900;SDS011;6518;50.930;5.344;2023-09-12T14:33:26;3.67;;;3.33;;
12900;SDS011;6518;50.930;5.344;2023-09-12T14:35:53;4.57;;;3.78;;
12900;SDS011;6518;50.930;5.344;2023-09-12T14:38:20;5.07;;;3.75;;
12900;SDS011;6518;50.930;5.344;2023-09-12T14:40:47;4.10;;;3.70;;
12900;SDS011;6518;50.930;5.344;2023-09-12T14:43:14;6.55;;;3.88;;
12900;SDS011;6518;50.930;5.344;2023-09-12T14:45:42;5.05;;;4.00;;
12900;SDS011;6518;50.930;5.344;2023-09-12T14:48:09;5.32;;;3.58;;
12900;SDS011;6518;50.930;5.344;2023-09-12T14:50:36;5.15;;;3.75;;
12900;SDS011;6518;50.930;5.344;2023-09-12T14:53:03;6.25;;;4.43;;
12900;SDS011;6518;50.930;5.344;2023-09-12T14:55:30;4.80;;;3.65;;
12900;SDS011;6518;50.930;5.344;2023-09-12T14:57:57;4.20;;;3.63;;